createdAt,value
2023-10-30T00:01:21.420Z,81.37
2023-10-30T00:06:26.939Z,81.46
2023-10-30T00:11:29.703Z,81.53
2023-10-30T00:16:32.193Z,81.59
2023-10-30T00:21:34.564Z,81.46
2023-10-30T00:26:38.172Z,81.78
2023-10-30T00:31:41.128Z,81.62
2023-10-30T00:36:44.682Z,81.46
2023-10-30T00:41:47.018Z,81.36
2023-10-30T00:46:53.387Z,81.64
2023-10-30T00:51:55.773Z,81.38
2023-10-30T00:56:58.173Z,81.58
2023-10-30T01:02:00.610Z,81.37
2023-10-30T01:07:04.151Z,81.48
2023-10-30T01:12:06.834Z,81.46
2023-10-30T01:17:10.649Z,81.36
2023-10-30T01:22:23.144Z,81.31
2023-10-30T01:27:29.050Z,81.15
2023-10-30T01:32:31.547Z,81.43
2023-10-30T01:37:33.974Z,81.09
2023-10-30T01:42:36.563Z,81.19
2023-10-30T01:47:39.743Z,81.17
2023-10-30T01:52:43.726Z,81.22
2023-10-30T01:57:46.989Z,81.12
2023-10-30T02:02:49.763Z,81.15
2023-10-30T02:07:52.567Z,80.96
2023-10-30T02:12:54.848Z,81.00
2023-10-30T02:17:57.208Z,81.09
2023-10-30T02:23:19.440Z,81.22
2023-10-30T02:28:21.706Z,80.99
2023-10-30T02:33:24.118Z,81.27
2023-10-30T02:38:26.506Z,81.09
2023-10-30T02:43:28.796Z,81.47
2023-10-30T02:48:32.416Z,81.10
2023-10-30T02:53:34.953Z,81.21
2023-10-30T02:58:37.378Z,81.14
2023-10-30T03:03:41.048Z,81.01
2023-10-30T03:08:43.586Z,81.04
2023-10-30T03:13:46.169Z,81.01
2023-10-30T03:18:48.549Z,81.21
2023-10-30T03:23:50.991Z,81.14
2023-10-30T03:28:53.387Z,81.19
2023-10-30T03:33:55.919Z,81.00
2023-10-30T03:38:58.740Z,81.00
2023-10-30T03:44:01.116Z,81.16
2023-10-30T03:49:03.452Z,81.14
2023-10-30T03:54:05.976Z,81.05
2023-10-30T03:59:08.319Z,81.09
2023-10-30T04:04:10.932Z,80.83
2023-10-30T04:09:13.332Z,81.00
2023-10-30T04:14:15.691Z,81.00
2023-10-30T04:19:18.038Z,81.03
2023-10-30T04:24:20.455Z,81.04
2023-10-30T04:29:22.900Z,81.07
2023-10-30T04:34:25.263Z,81.04
2023-10-30T04:39:27.921Z,81.07
2023-10-30T04:44:32.771Z,80.96
2023-10-30T04:49:39.514Z,80.95
2023-10-30T04:54:41.874Z,81.03
2023-10-30T04:59:44.189Z,80.97
2023-10-30T05:04:46.664Z,81.06
2023-10-30T05:09:50.552Z,80.99
2023-10-30T05:14:53.480Z,81.22
2023-10-30T05:19:55.825Z,81.08
2023-10-30T05:24:58.165Z,81.18
2023-10-30T05:30:00.672Z,81.18
2023-10-30T05:35:03.069Z,81.24
2023-10-30T05:40:10.525Z,81.17
2023-10-30T05:45:33.211Z,81.31
2023-10-30T06:56:33.334Z,81.47
2023-10-30T07:26:26.352Z,81.44
2023-10-30T07:55:41.239Z,81.99
2023-10-30T08:07:19.207Z,81.90
2023-10-30T08:13:12.999Z,81.98
2023-10-30T08:24:33.360Z,81.99
2023-10-30T08:36:19.422Z,82.04
2023-10-30T08:41:52.628Z,82.36
2023-10-30T09:16:54.649Z,82.50
2023-10-30T10:22:15.876Z,83.74
2023-10-30T10:34:22.376Z,83.82
2023-10-30T10:52:40.333Z,84.00
2023-10-30T11:10:07.607Z,84.16
2023-10-30T11:29:17.135Z,83.83
2023-10-30T12:00:47.193Z,84.23
2023-10-30T12:05:49.817Z,84.61
2023-10-30T12:10:55.063Z,84.54
2023-10-30T12:15:57.686Z,84.73
2023-10-30T12:21:01.714Z,84.48
2023-10-30T12:26:10.679Z,84.68
2023-10-30T12:31:24.712Z,84.88
2023-10-30T12:36:34.228Z,84.71
2023-10-30T12:41:36.569Z,85.09
2023-10-30T12:46:39.947Z,84.38
2023-10-30T12:51:42.485Z,84.52
2023-10-30T12:56:44.954Z,84.51
2023-10-30T13:01:58.320Z,84.65
2023-10-30T13:07:01.530Z,84.72
2023-10-30T13:12:06.358Z,84.64
2023-10-30T13:17:09.014Z,84.68
2023-10-30T13:22:11.358Z,84.59
2023-10-30T13:27:13.763Z,84.62
2023-10-30T13:32:17.592Z,84.46
2023-10-30T13:37:20.051Z,84.54
2023-10-30T13:42:22.518Z,84.62
2023-10-30T13:47:25.205Z,84.40
2023-10-30T13:52:32.345Z,84.31
2023-10-30T13:57:36.389Z,84.27
2023-10-30T14:02:41.773Z,84.22
2023-10-30T14:07:44.379Z,84.44
2023-10-30T14:12:46.801Z,84.21
2023-10-30T14:17:49.248Z,84.28
2023-10-30T14:22:54.407Z,84.38
2023-10-30T14:27:56.899Z,84.38
2023-10-30T14:32:59.482Z,84.26
2023-10-30T14:44:19.163Z,84.15
2023-10-30T15:02:52.907Z,83.93
2023-10-30T15:07:57.293Z,83.98
2023-10-30T15:13:02.983Z,84.09
2023-10-30T15:44:07.746Z,84.20
2023-10-30T15:49:25.078Z,83.98
2023-10-30T16:12:51.751Z,83.96
2023-10-30T16:22:59.632Z,83.93
2023-10-30T16:28:02.135Z,83.93
2023-10-30T16:33:04.667Z,84.07
2023-10-30T16:38:08.674Z,83.97
2023-10-30T16:43:11.273Z,84.18
2023-10-30T16:48:14.308Z,84.13
2023-10-30T17:10:52.709Z,84.07
2023-10-30T17:16:19.354Z,84.04
2023-10-30T17:21:22.417Z,83.89
2023-10-30T17:32:09.802Z,84.05
2023-10-30T17:42:56.854Z,84.00
2023-10-30T17:53:38.134Z,83.98
2023-10-30T17:58:41.272Z,83.70
2023-10-30T18:03:46.452Z,84.11
2023-10-30T18:08:49.452Z,84.14
2023-10-30T18:13:51.944Z,84.32
2023-10-30T18:18:56.629Z,84.22
2023-10-30T18:24:01.608Z,84.30
2023-10-30T18:29:10.802Z,84.27
2023-10-30T18:34:19.285Z,84.30
2023-10-30T18:39:30.293Z,84.58
2023-10-30T18:44:32.767Z,84.35
2023-10-30T18:49:37.602Z,84.36
2023-10-30T18:54:41.289Z,84.52
2023-10-30T18:59:44.428Z,84.84
2023-10-30T19:04:48.502Z,84.76
2023-10-30T19:09:51.476Z,84.82
2023-10-30T19:14:54.002Z,84.85
2023-10-30T19:19:59.767Z,85.01
2023-10-30T19:25:02.455Z,85.19
2023-10-30T19:30:06.229Z,85.27
2023-10-30T19:35:11.916Z,85.22
2023-10-30T19:40:14.482Z,85.48
2023-10-30T19:45:17.193Z,85.60
2023-10-30T19:50:19.596Z,85.36
2023-10-30T19:55:25.242Z,85.59
2023-10-30T20:00:31.955Z,85.54
2023-10-30T20:05:36.870Z,85.85
2023-10-30T20:10:39.740Z,86.00
2023-10-30T20:15:42.240Z,85.88
2023-10-30T20:20:44.878Z,85.84
2023-10-30T20:25:48.754Z,86.08
2023-10-30T20:30:51.311Z,86.29
2023-10-30T20:35:54.029Z,86.48
2023-10-30T20:40:56.702Z,86.53
2023-10-30T20:45:59.098Z,86.90
2023-10-30T20:51:01.591Z,87.02
2023-10-30T20:56:04.286Z,87.00
2023-10-30T21:01:10.304Z,87.09
2023-10-30T21:06:13.926Z,87.10
2023-10-30T21:11:16.592Z,87.25
2023-10-30T21:21:59.054Z,87.18
2023-10-30T21:27:01.648Z,87.46
2023-10-30T21:32:04.465Z,87.74
2023-10-30T21:37:06.946Z,88.01
2023-10-30T21:42:09.574Z,88.16
2023-10-30T21:47:12.846Z,88.23
2023-10-30T21:52:15.526Z,88.21
2023-10-30T21:57:19.101Z,88.24
2023-10-30T22:02:21.696Z,88.29
2023-10-30T22:07:27.298Z,88.45
2023-10-30T22:12:32.577Z,88.46
2023-10-30T22:17:35.201Z,88.47
2023-10-30T22:22:38.471Z,88.44
2023-10-30T22:27:41.449Z,88.58
2023-10-30T22:32:43.884Z,88.77
2023-10-30T22:37:46.722Z,88.77
2023-10-30T22:42:49.172Z,88.52
2023-10-30T22:47:52.890Z,88.79
2023-10-30T22:52:55.511Z,88.87
2023-10-30T22:57:59.971Z,88.63
2023-10-30T23:03:02.755Z,88.78
2023-10-30T23:08:07.133Z,88.95
2023-10-30T23:13:11.252Z,88.97
2023-10-30T23:18:13.985Z,88.82
2023-10-30T23:23:17.411Z,88.56
2023-10-30T23:28:19.902Z,88.62
2023-10-30T23:33:22.335Z,88.65
2023-10-30T23:38:25.487Z,88.76
2023-10-30T23:43:28.036Z,88.77
2023-10-30T23:48:30.810Z,88.92
2023-10-30T23:53:33.293Z,88.90
2023-10-30T23:58:35.825Z,88.65
